Time;durP1;ratioP1;P1;durP2;ratioP2;P2;SDS_P1;SDS_P2;PMS_P1;PMS_P2;Temp;Humidity;BMP_temperature;BMP_pressure;BME280_temperature;BME280_humidity;BME280_pressure;Samples;Min_cycle;Max_cycle;Signal;HPM_P1;HPM_P2
2023/05/15 00:08:29;;;;;;;1999.90;999.90;;;13.70;99.90;;;;;;6698529;88;20198;-75
2023/05/15 00:18:30;;;;;;;1999.90;999.90;;;13.60;99.90;;;;;;6703301;88;20221;-76
2023/05/15 00:28:30;;;;;;;1999.90;999.90;;;13.60;99.90;;;;;;6703906;88;20193;-76
2023/05/15 00:38:32;;;;;;;1999.90;999.90;;;13.60;99.90;;;;;;6708091;88;20710;-76
2023/05/15 00:48:33;;;;;;;1999.90;999.90;;;13.60;99.90;;;;;;6698012;88;20305;-76
2023/05/15 00:58:36;;;;;;;1999.90;999.90;;;13.50;99.90;;;;;;6705473;88;20214;-76
2023/05/15 01:08:45;;;;;;;1999.90;999.90;;;13.40;99.90;;;;;;6697639;88;20316;-76
2023/05/15 01:18:46;;;;;;;1999.90;999.90;;;13.50;99.90;;;;;;6708726;88;20195;-76
2023/05/15 01:28:57;;;;;;;1999.90;999.90;;;13.40;99.90;;;;;;6704300;88;20333;-76
2023/05/15 01:39:01;;;;;;;1999.90;999.90;;;13.40;99.90;;;;;;6704302;88;20202;-76
2023/05/15 01:49:02;;;;;;;1999.90;999.90;;;13.40;99.90;;;;;;6709188;88;20249;-76
2023/05/15 01:59:04;;;;;;;1999.90;999.90;;;13.30;99.90;;;;;;6702894;88;20185;-76
2023/05/15 02:09:05;;;;;;;1999.90;999.90;;;13.30;99.90;;;;;;6714306;88;20213;-76
2023/05/15 02:19:05;;;;;;;1999.90;999.90;;;13.40;99.90;;;;;;6700225;88;20219;-76
2023/05/15 02:29:29;;;;;;;1999.90;999.90;;;13.40;99.90;;;;;;6701179;88;20181;-76
2023/05/15 02:39:31;;;;;;;1999.90;999.90;;;13.50;99.90;;;;;;6699588;88;20274;-76
2023/05/15 02:49:32;;;;;;;1999.90;999.90;;;13.60;99.90;;;;;;6704366;88;20841;-76
2023/05/15 02:59:33;;;;;;;1999.90;999.90;;;13.70;99.90;;;;;;6695269;88;20207;-76
2023/05/15 03:09:34;;;;;;;1999.90;999.90;;;13.80;99.90;;;;;;6700921;88;20185;-76
2023/05/15 03:19:34;;;;;;;1999.90;999.90;;;13.80;99.90;;;;;;6700352;88;20244;-77
2023/05/15 03:29:35;;;;;;;1999.90;999.90;;;13.90;99.90;;;;;;6699483;88;20740;-76
2023/05/15 03:39:35;;;;;;;1999.90;999.90;;;13.90;99.90;;;;;;6707835;88;20743;-76
2023/05/15 03:49:36;;;;;;;1999.90;999.90;;;13.90;99.90;;;;;;6703390;88;20654;-76
2023/05/15 03:59:36;;;;;;;1999.90;999.90;;;13.90;99.90;;;;;;6702441;88;20265;-76
2023/05/15 04:09:37;;;;;;;1999.90;999.90;;;13.90;99.90;;;;;;6702421;88;20227;-76
2023/05/15 04:19:39;;;;;;;1999.90;999.90;;;13.90;99.90;;;;;;6702201;88;20207;-76
2023/05/15 04:29:39;;;;;;;1999.90;999.90;;;13.90;99.90;;;;;;6703151;88;20630;-76
2023/05/15 04:39:40;;;;;;;1999.90;999.90;;;13.90;99.90;;;;;;6703903;88;20218;-76
2023/05/15 04:49:41;;;;;;;1999.90;999.90;;;13.90;99.90;;;;;;6702465;88;20530;-76
2023/05/15 04:59:41;;;;;;;1999.90;999.90;;;14.00;99.90;;;;;;6704290;88;20220;-76
2023/05/15 05:09:42;;;;;;;1999.90;999.90;;;14.00;99.90;;;;;;6709985;88;20181;-76
2023/05/15 05:19:42;;;;;;;1999.90;999.90;;;14.00;99.90;;;;;;6716341;88;20224;-76
2023/05/15 05:29:43;;;;;;;1999.90;999.90;;;13.90;99.90;;;;;;6710246;88;20215;-75
2023/05/15 05:39:43;;;;;;;1999.90;999.90;;;13.90;99.90;;;;;;6709325;88;20197;-76
2023/05/15 05:49:46;;;;;;;1999.90;999.90;;;13.80;99.90;;;;;;6707577;88;20566;-76
2023/05/15 05:59:48;;;;;;;1999.90;999.90;;;13.80;99.90;;;;;;6710409;88;20625;-76
2023/05/15 06:09:49;;;;;;;1999.90;999.90;;;13.80;99.90;;;;;;6698681;88;20184;-76
2023/05/15 06:29:53;;;;;;;1999.90;999.90;;;13.80;99.90;;;;;;6721514;88;20197;-79
2023/05/15 06:39:55;;;;;;;1999.90;999.90;;;13.80;99.90;;;;;;6715545;88;20250;-78
2023/05/15 06:49:55;;;;;;;1999.90;999.90;;;13.80;99.90;;;;;;6712814;88;20240;-78
2023/05/15 06:59:56;;;;;;;1999.90;999.90;;;13.80;99.90;;;;;;6714197;88;20273;-78
2023/05/15 07:09:56;;;;;;;1999.90;999.90;;;13.90;99.90;;;;;;6735611;88;20185;-78
2023/05/15 07:19:57;;;;;;;1999.90;999.90;;;13.80;99.90;;;;;;6720979;88;20757;-78
2023/05/15 07:29:57;;;;;;;1999.90;999.90;;;13.90;99.90;;;;;;6713804;88;20175;-77
2023/05/15 07:39:58;;;;;;;1999.90;999.90;;;14.00;99.90;;;;;;6711018;88;20323;-77
2023/05/15 07:49:58;;;;;;;1999.90;999.90;;;14.00;99.90;;;;;;6714992;88;20213;-77
2023/05/15 08:00:01;;;;;;;1999.90;999.90;;;14.10;99.90;;;;;;6714602;88;20219;-77
2023/05/15 08:10:04;;;;;;;1999.90;999.90;;;14.00;99.90;;;;;;6715912;88;20228;-78
2023/05/15 08:20:06;;;;;;;1999.90;999.90;;;13.90;99.90;;;;;;6709721;88;20173;-77
2023/05/15 08:30:07;;;;;;;1999.90;999.90;;;13.90;99.90;;;;;;6709018;88;20305;-77
2023/05/15 08:40:08;;;;;;;1999.90;999.90;;;13.90;99.90;;;;;;6713067;88;20269;-78
2023/05/15 08:50:14;;;;;;;1999.90;999.90;;;14.10;99.90;;;;;;6712479;88;20193;-78
2023/05/15 09:00:16;;;;;;;1999.90;999.90;;;14.30;99.90;;;;;;6711554;88;20251;-77
2023/05/15 09:10:17;;;;;;;1999.90;999.90;;;14.40;99.90;;;;;;6711028;88;20202;-77
2023/05/15 09:20:27;;;;;;;1999.90;999.90;;;14.60;99.90;;;;;;6711526;88;20254;-77
2023/05/15 09:30:29;;;;;;;1999.90;999.90;;;14.90;99.90;;;;;;6709425;88;20233;-77
2023/05/15 09:40:31;;;;;;;1999.90;999.90;;;15.50;99.90;;;;;;6713527;88;20264;-77
2023/05/15 09:50:36;;;;;;;1999.90;999.90;;;16.40;99.90;;;;;;6713411;88;20182;-77
2023/05/15 10:00:38;;;;;;;1999.90;999.90;;;18.00;99.90;;;;;;6716676;88;20694;-78
2023/05/15 10:10:39;;;;;;;1999.90;999.90;;;18.30;99.90;;;;;;6710524;88;20230;-77
2023/05/15 10:20:40;;;;;;;1999.90;999.90;;;18.70;99.90;;;;;;6724489;88;20193;-78
2023/05/15 10:30:42;;;;;;;1999.90;999.90;;;19.20;99.90;;;;;;6714399;88;20211;-77
2023/05/15 10:40:43;;;;;;;1999.90;999.90;;;19.90;99.90;;;;;;6723749;88;20210;-77
2023/05/15 10:50:44;;;;;;;1999.90;999.90;;;20.10;99.90;;;;;;6717025;88;20178;-78
2023/05/15 11:00:47;;;;;;;1999.90;999.90;;;21.00;99.90;;;;;;6726173;88;20218;-78
2023/05/15 11:10:48;;;;;;;1999.90;999.90;;;21.90;99.90;;;;;;6731862;88;20190;-77
2023/05/15 11:20:48;;;;;;;1999.90;999.90;;;22.50;99.90;;;;;;6721702;88;20761;-78
2023/05/15 11:30:57;;;;;;;1999.90;999.90;;;23.80;99.90;;;;;;6712944;88;20211;-78
2023/05/15 11:41:02;;;;;;;1999.90;999.90;;;24.50;99.90;;;;;;6712615;88;20767;-77
2023/05/15 11:51:04;;;;;;;1999.90;999.90;;;23.90;99.70;;;;;;6709852;88;20714;-78
2023/05/15 12:01:04;;;;;;;1999.90;999.90;;;24.60;98.00;;;;;;6711715;88;20347;-77
2023/05/15 12:11:05;;;;;;;1999.90;999.90;;;24.20;98.40;;;;;;6709866;88;20657;-76
2023/05/15 12:21:06;;;;;;;1999.90;999.90;;;24.60;97.10;;;;;;6718124;76;20202;-75
2023/05/15 12:31:09;;;;;;;1999.90;999.90;;;24.50;96.50;;;;;;6720085;88;20193;-76
2023/05/15 12:41:11;;;;;;;1999.90;999.90;;;25.00;96.30;;;;;;6721427;88;20242;-76
2023/05/15 12:51:15;;;;;;;1999.90;999.90;;;25.40;95.20;;;;;;6717255;88;20194;-77
2023/05/15 13:01:16;;;;;;;1999.90;999.90;;;25.90;95.10;;;;;;6716768;88;20193;-75
2023/05/15 13:11:17;;;;;;;1999.90;999.90;;;25.90;93.30;;;;;;6721778;88;20202;-76
2023/05/15 13:21:18;;;;;;;1999.90;999.90;;;25.60;93.50;;;;;;6722823;88;20189;-76
2023/05/15 13:31:18;;;;;;;1999.90;999.90;;;24.80;91.00;;;;;;6718087;88;20263;-75
2023/05/15 13:41:19;;;;;;;1999.90;999.90;;;25.00;92.70;;;;;;6720578;88;20213;-76
2023/05/15 13:51:20;;;;;;;1999.90;999.90;;;25.20;91.70;;;;;;6724183;88;20906;-74
2023/05/15 14:01:21;;;;;;;1999.90;999.90;;;24.60;92.70;;;;;;6728672;88;20218;-75
2023/05/15 14:11:21;;;;;;;1999.90;999.90;;;24.30;92.80;;;;;;6723977;88;20218;-75
2023/05/15 14:21:22;;;;;;;1999.90;999.90;;;23.80;92.10;;;;;;6728569;88;20510;-75
2023/05/15 14:31:24;;;;;;;1999.90;999.90;;;23.90;91.70;;;;;;6723951;88;20210;-76
2023/05/15 14:41:25;;;;;;;1999.90;999.90;;;23.80;91.00;;;;;;6719920;88;20834;-75
2023/05/15 14:51:25;;;;;;;1999.90;999.90;;;23.10;90.80;;;;;;6722982;88;20757;-75
2023/05/15 15:01:26;;;;;;;1999.90;999.90;;;23.70;90.20;;;;;;6721575;88;20331;-75
2023/05/15 15:11:26;;;;;;;1999.90;999.90;;;23.60;91.10;;;;;;6718842;88;20196;-77
2023/05/15 15:21:27;;;;;;;1999.90;999.90;;;23.90;91.70;;;;;;6716812;88;20652;-75
2023/05/15 15:31:29;;;;;;;1999.90;999.90;;;23.00;94.80;;;;;;6715789;88;20210;-76
2023/05/15 15:41:30;;;;;;;1999.90;999.90;;;22.40;95.60;;;;;;6722022;88;20864;-74
2023/05/15 15:51:30;;;;;;;1999.90;999.90;;;22.20;94.20;;;;;;6721428;88;20306;-74
2023/05/15 16:01:31;;;;;;;1999.90;999.90;;;21.90;95.10;;;;;;6730040;88;20196;-75
2023/05/15 16:11:32;;;;;;;1999.90;999.90;;;21.40;95.80;;;;;;6723432;88;20367;-75
2023/05/15 16:21:34;;;;;;;1999.90;999.90;;;20.70;97.50;;;;;;6725665;88;20624;-75
2023/05/15 16:31:37;;;;;;;1999.90;999.90;;;19.60;98.80;;;;;;6720529;88;20668;-74
2023/05/15 16:41:37;;;;;;;1999.90;999.90;;;19.00;99.90;;;;;;6715609;88;20162;-75
2023/05/15 16:51:38;;;;;;;1999.90;999.90;;;18.60;99.90;;;;;;6721902;88;20284;-75
2023/05/15 17:01:38;;;;;;;1999.90;999.90;;;18.40;99.90;;;;;;6719438;88;20549;-75
2023/05/15 17:11:39;;;;;;;1999.90;999.90;;;18.10;99.90;;;;;;6721826;88;20218;-76
2023/05/15 17:21:39;;;;;;;1999.90;999.90;;;17.70;99.90;;;;;;6726805;88;20180;-75
2023/05/15 17:31:40;;;;;;;1999.90;999.90;;;17.50;99.90;;;;;;6719686;88;20333;-75
2023/05/15 17:41:41;;;;;;;1999.90;999.90;;;17.30;99.90;;;;;;6724220;88;20185;-76
2023/05/15 17:51:41;;;;;;;1999.90;999.90;;;17.10;99.90;;;;;;6721612;88;20514;-76
2023/05/15 18:01:42;;;;;;;1999.90;999.90;;;16.90;99.90;;;;;;6729393;88;20195;-78
2023/05/15 18:11:42;;;;;;;1999.90;999.90;;;16.90;99.90;;;;;;6718126;88;20193;-75
2023/05/15 18:22:24;;;;;;;1999.90;999.90;;;16.80;99.90;;;;;;6743219;76;20286;-80
2023/05/15 18:32:24;;;;;;;1999.90;999.90;;;16.80;99.90;;;;;;6753881;88;20193;-76
2023/05/15 18:42:26;;;;;;;1999.90;999.90;;;16.50;99.90;;;;;;6747318;88;20689;-79
2023/05/15 18:52:27;;;;;;;1999.90;999.90;;;16.20;99.90;;;;;;6758106;88;20226;-79
2023/05/15 19:02:28;;;;;;;1999.90;999.90;;;15.80;99.90;;;;;;6750308;88;20879;-78
2023/05/15 19:12:28;;;;;;;1999.90;999.90;;;15.30;99.90;;;;;;6760425;88;20255;-79
2023/05/15 19:22:29;;;;;;;1999.90;999.90;;;15.00;99.90;;;;;;6777478;87;20296;-78
2023/05/15 19:32:30;;;;;;;1999.90;999.90;;;14.70;99.90;;;;;;6763403;87;20188;-80
2023/05/15 19:42:30;;;;;;;1999.90;999.90;;;14.50;99.90;;;;;;6762481;88;20247;-79
2023/05/15 19:52:31;;;;;;;1999.90;999.90;;;14.60;99.90;;;;;;6758793;88;20615;-79
2023/05/15 20:02:31;;;;;;;1999.90;999.90;;;14.40;99.90;;;;;;6740361;88;20248;-79
2023/05/15 20:12:32;;;;;;;1999.90;999.90;;;14.40;99.90;;;;;;6746147;88;20190;-79
2023/05/15 20:22:33;;;;;;;1999.90;999.90;;;14.30;99.90;;;;;;6760999;88;20189;-78
2023/05/15 20:32:35;;;;;;;1999.90;999.90;;;14.20;99.90;;;;;;6760708;88;20192;-79
2023/05/15 20:42:35;;;;;;;1999.90;999.90;;;14.20;99.90;;;;;;6741642;88;20274;-78
2023/05/15 20:52:36;;;;;;;1999.90;999.90;;;14.20;99.90;;;;;;6745185;88;20627;-78
2023/05/15 21:02:36;;;;;;;1999.90;999.90;;;14.10;99.90;;;;;;6745122;88;20676;-81
2023/05/15 21:12:38;;;;;;;1999.90;999.90;;;14.20;99.90;;;;;;6744482;88;20515;-80
2023/05/15 21:22:39;;;;;;;1999.90;999.90;;;14.10;99.90;;;;;;6745463;88;20831;-79
2023/05/15 21:32:39;;;;;;;1999.90;999.90;;;14.10;99.90;;;;;;6745360;88;20182;-80
2023/05/15 21:42:40;;;;;;;1999.90;999.90;;;13.80;99.90;;;;;;6748665;88;20854;-81
2023/05/15 21:52:41;;;;;;;1999.90;999.90;;;13.70;99.90;;;;;;6746098;88;20289;-80
2023/05/15 22:02:42;;;;;;;1999.90;999.90;;;13.60;99.90;;;;;;6745727;88;20259;-80
2023/05/15 22:12:43;;;;;;;1999.90;999.90;;;13.50;99.90;;;;;;6750900;88;20176;-79
2023/05/15 22:22:43;;;;;;;1999.90;999.90;;;13.40;99.90;;;;;;6745374;88;20185;-80
2023/05/15 22:32:44;;;;;;;1999.90;999.90;;;13.30;99.90;;;;;;6745654;88;20215;-80
2023/05/15 22:42:48;;;;;;;1999.90;999.90;;;13.20;99.90;;;;;;6744652;88;20922;-79
2023/05/15 22:52:49;;;;;;;1999.90;999.90;;;13.00;99.90;;;;;;6745633;88;20169;-80
2023/05/15 23:02:53;;;;;;;1999.90;999.90;;;12.90;99.90;;;;;;6743766;88;20813;-80
2023/05/15 23:12:54;;;;;;;1999.90;999.90;;;13.00;99.90;;;;;;6744438;88;20169;-80
2023/05/15 23:22:54;;;;;;;1999.90;999.90;;;12.90;99.90;;;;;;6744081;88;20189;-80
2023/05/15 23:32:55;;;;;;;1999.90;999.90;;;12.60;99.90;;;;;;6744510;88;20771;-80
2023/05/15 23:42:56;;;;;;;1999.90;999.90;;;12.60;99.90;;;;;;6747980;88;20204;-80
2023/05/15 23:52:57;;;;;;;1999.90;999.90;;;12.60;99.90;;;;;;6744350;88;20231;-80
